메인 페이지
METAR-TAF:

METAR-TAF

공항 :

Albert, 프랑스

위도: 49-58-21N, 경도: 002-41-29E, 고도: 111m

현재 날씨관측

예보는 36분 전, 03:00시(UTC)에 발표되었습니다.
북북동12kt
온도 13°C
습도 88%
기압 1019 hPa
시정 10km 이상
1500m 미만 상공 구름 및 적란운 없음

METAR: LFAQ 200300Z AUTO 03012KT CAVOK 13/11 Q1019

시각: 05:36 (03:36 UTC)

예보

예보는 13 시간 36분 전, 14:00시(UTC)에 발표되었습니다.
예보 대상 시간: 19일 15시부터 19일 24시까지 (UTC)
북동8kt
시정 10km 이상
고도 3500ft 상공 구름 보통

TAF: LFAQ 191400Z 1915/1924 04008KT 9999 SCT035

4,000개 이상의 공항 관측 자료 및 예보 (METAR 및 TAF 보고).

지도상에서 검색 가능한 기상관측소가 노란 점과 빨간 점으로 표시되어 있습니다.

기상관측소 명을 보려면 표시 위로 마우스를 이동하세요.

날씨 관측과 예보를 보려면 클릭하세요.

지도 변경 : 확대하려면 엑스 표시가 있는 녹색 버튼, 축소하려면 빼기 표시가 있는 녹색 버튼, 다음 페이지의 지도를 보려면 녹색 화살표를 클릭하세요.


METAR-TAF: